Terminal Aerodrome Forecast
Issued by NWS Chicago, IL

Home | Current Version | Previous Version | Text Only | Print | Product List | Glossary Off
Versions: 1 2 3 4 5 6 7 8 9 10 11 12 13 14 15 16 17 18 19 20 21 22 23 24 25 26

720
FTUS43 KLOT 242320
TAFRFD
TAF
KRFD 242320Z 2500/2524 02012KT P6SM VCSH FEW015 BKN060
     FM250500 06010KT 4SM -SHRA BR SCT004 OVC008
     FM250900 06011KT 2SM -SHRA BR SCT002 OVC004
     FM251600 07013G20KT 3SM -RADZ BR OVC004=

USA.gov is the U.S. government's official web portal to all federal, state and local government web resources and services.